createdAt,value
2016-12-10T00:00:59.789Z,0
2016-12-10T00:02:08.377Z,0
2016-12-10T00:03:16.972Z,0
2016-12-10T00:04:25.955Z,0
2016-12-10T00:05:34.541Z,0
2016-12-10T00:06:43.444Z,0
2016-12-10T00:07:52.367Z,0
2016-12-10T00:09:00.947Z,0
2016-12-10T00:10:09.908Z,0
2016-12-10T00:11:18.811Z,0
2016-12-10T00:12:27.726Z,0
2016-12-10T00:13:36.621Z,0
2016-12-10T00:14:45.844Z,0
2016-12-10T00:15:54.813Z,0
2016-12-10T00:17:03.727Z,0
2016-12-10T00:18:12.637Z,0
2016-12-10T00:19:21.535Z,0
2016-12-10T00:20:30.123Z,0
2016-12-10T00:21:39.069Z,0
2016-12-10T00:22:47.973Z,0
2016-12-10T00:23:57.504Z,0
2016-12-10T00:25:06.094Z,0
2016-12-10T00:26:15.013Z,0
2016-12-10T00:27:24.591Z,0
2016-12-10T00:28:33.508Z,0
2016-12-10T00:29:42.096Z,0
2016-12-10T00:30:51.004Z,0
2016-12-10T00:31:59.910Z,0
2016-12-10T00:33:08.605Z,0
2016-12-10T00:34:17.519Z,0
2016-12-10T00:35:26.414Z,0
2016-12-10T00:36:35.329Z,0
2016-12-10T00:37:44.558Z,0
2016-12-10T00:38:53.518Z,0
2016-12-10T00:40:02.098Z,0
2016-12-10T00:41:11.032Z,0
2016-12-10T00:42:19.950Z,0
2016-12-10T00:43:28.549Z,0
2016-12-10T00:44:37.855Z,0
2016-12-10T00:45:46.429Z,0
2016-12-10T00:46:55.339Z,0
2016-12-10T00:48:03.936Z,0
2016-12-10T00:49:13.166Z,0
2016-12-10T00:50:21.857Z,0
2016-12-10T00:51:30.774Z,0
2016-12-10T00:52:39.682Z,0
2016-12-10T00:53:48.252Z,0
2016-12-10T00:54:56.846Z,0
2016-12-10T00:56:05.843Z,0
2016-12-10T00:57:14.757Z,0
2016-12-10T00:58:24.315Z,0
2016-12-10T00:59:33.223Z,0
2016-12-10T01:00:41.821Z,0
2016-12-10T01:01:51.026Z,0
2016-12-10T01:02:59.913Z,0
2016-12-10T01:04:08.829Z,0
2016-12-10T01:05:17.421Z,0
2016-12-10T01:06:26.021Z,0
2016-12-10T01:07:34.943Z,0
2016-12-10T01:08:43.528Z,0
2016-12-10T01:09:52.148Z,0
2016-12-10T01:11:00.736Z,0
2016-12-10T01:12:09.644Z,0
2016-12-10T01:13:19.173Z,0
2016-12-10T01:14:27.810Z,0
2016-12-10T01:15:36.401Z,0
2016-12-10T01:16:44.986Z,0
2016-12-10T01:17:53.904Z,0
2016-12-10T01:19:03.433Z,0
2016-12-10T01:20:12.021Z,0
2016-12-10T01:21:20.935Z,0
2016-12-10T01:22:29.844Z,0
2016-12-10T01:23:38.771Z,0
2016-12-10T01:24:47.660Z,0
2016-12-10T01:25:56.932Z,0
2016-12-10T01:27:05.835Z,0
2016-12-10T01:28:14.417Z,0
2016-12-10T01:29:23.008Z,0
2016-12-10T01:30:32.015Z,0
2016-12-10T01:31:41.241Z,0
2016-12-10T01:32:50.463Z,0
2016-12-10T01:33:59.046Z,0
2016-12-10T01:35:07.624Z,0
2016-12-10T01:36:16.915Z,0
2016-12-10T01:37:25.504Z,0
2016-12-10T01:38:34.398Z,0
2016-12-10T01:39:42.991Z,0
2016-12-10T01:40:51.567Z,0
2016-12-10T01:42:00.775Z,0
2016-12-10T01:43:09.367Z,0
2016-12-10T01:44:18.274Z,0
2016-12-10T01:45:27.196Z,0
2016-12-10T01:46:35.791Z,0
2016-12-10T01:47:45.127Z,0
2016-12-10T01:48:54.354Z,0
2016-12-10T01:50:02.949Z,0
2016-12-10T01:51:12.494Z,0
2016-12-10T01:52:21.399Z,0
2016-12-10T01:53:30.411Z,0
2016-12-10T01:54:39.318Z,0
2016-12-10T01:55:48.225Z,0
2016-12-10T01:56:57.133Z,0
2016-12-10T01:58:06.030Z,0
2016-12-10T01:59:14.966Z,0
2016-12-10T02:00:23.873Z,0
2016-12-10T02:01:32.779Z,0
2016-12-10T02:02:41.701Z,0
2016-12-10T02:03:50.303Z,0
2016-12-10T02:04:59.838Z,0
2016-12-10T02:06:08.440Z,0
2016-12-10T02:07:17.031Z,0
2016-12-10T02:08:26.256Z,0
2016-12-10T02:09:34.840Z,0
2016-12-10T02:10:43.486Z,0
2016-12-10T02:11:52.076Z,0
2016-12-10T02:13:00.982Z,0
2016-12-10T02:14:09.570Z,0
2016-12-10T02:15:18.472Z,0
2016-12-10T02:16:27.506Z,0
2016-12-10T02:17:36.408Z,0
2016-12-10T02:18:45.004Z,0
2016-12-10T02:19:53.910Z,0
2016-12-10T02:21:02.520Z,0
2016-12-10T02:22:11.467Z,0
2016-12-10T02:23:20.048Z,0
2016-12-10T02:24:28.961Z,0
2016-12-10T02:25:38.187Z,0
2016-12-10T02:26:47.110Z,0
2016-12-10T02:27:56.488Z,0
2016-12-10T02:29:05.399Z,0
2016-12-10T02:30:13.981Z,0
2016-12-10T02:31:22.565Z,0
2016-12-10T02:32:31.478Z,0
2016-12-10T02:33:40.118Z,0
2016-12-10T02:34:49.384Z,0
2016-12-10T02:35:58.611Z,0
2016-12-10T02:37:07.845Z,0
2016-12-10T02:38:19.468Z,0
2016-12-10T02:39:28.819Z,0
2016-12-10T02:40:37.422Z,0
2016-12-10T02:41:46.013Z,0
2016-12-10T02:42:54.601Z,0
2016-12-10T02:44:03.517Z,0
2016-12-10T02:45:12.444Z,0
2016-12-10T02:46:21.995Z,0
2016-12-10T02:47:30.902Z,0
2016-12-10T02:48:39.485Z,0
2016-12-10T02:49:48.395Z,0
2016-12-10T02:50:57.659Z,0
2016-12-10T02:52:06.243Z,0
2016-12-10T02:53:15.145Z,0
2016-12-10T02:54:24.042Z,0
2016-12-10T02:55:32.936Z,0
2016-12-10T02:56:41.937Z,0
2016-12-10T02:57:50.535Z,0
2016-12-10T02:58:59.772Z,0
2016-12-10T03:00:08.983Z,0
2016-12-10T03:01:17.586Z,0
2016-12-10T03:02:26.489Z,0
2016-12-10T03:03:35.084Z,0
2016-12-10T03:04:43.681Z,0
2016-12-10T03:05:52.267Z,0
2016-12-10T03:07:01.505Z,0
2016-12-10T03:08:11.207Z,0
2016-12-10T03:09:20.139Z,0
2016-12-10T03:10:29.039Z,0
2016-12-10T03:11:37.638Z,0
2016-12-10T03:12:46.239Z,0
2016-12-10T03:13:54.874Z,0
2016-12-10T03:15:04.101Z,0
2016-12-10T03:16:13.022Z,0
2016-12-10T03:17:21.941Z,0
2016-12-10T03:18:30.537Z,0
2016-12-10T03:19:39.180Z,0
2016-12-10T03:20:47.770Z,0
2016-12-10T03:21:56.351Z,0
2016-12-10T03:23:05.261Z,0
2016-12-10T03:24:14.477Z,0
2016-12-10T03:25:23.682Z,0
2016-12-10T03:26:32.601Z,0
2016-12-10T03:27:41.192Z,0
2016-12-10T03:28:50.094Z,0
2016-12-10T03:29:59.321Z,0
2016-12-10T03:31:08.598Z,0
2016-12-10T03:32:17.494Z,0
2016-12-10T03:33:26.084Z,0
2016-12-10T03:34:34.667Z,0
2016-12-10T03:35:43.256Z,0
2016-12-10T03:36:51.952Z,0
2016-12-10T03:38:00.562Z,0
2016-12-10T03:39:09.179Z,0
2016-12-10T03:40:18.095Z,0
2016-12-10T03:41:27.000Z,0
2016-12-10T03:42:35.961Z,0
2016-12-10T03:43:44.872Z,0
2016-12-10T03:44:53.768Z,0
2016-12-10T03:46:02.666Z,0
2016-12-10T03:47:11.601Z,0
2016-12-10T03:48:20.254Z,0
2016-12-10T03:49:29.500Z,0
2016-12-10T03:50:38.078Z,0
2016-12-10T03:51:46.669Z,0
2016-12-10T03:52:55.249Z,0
2016-12-10T03:54:04.604Z,0
2016-12-10T03:55:13.520Z,0
2016-12-10T03:56:22.428Z,0
2016-12-10T03:57:31.327Z,0
2016-12-10T03:58:39.924Z,0
2016-12-10T03:59:49.771Z,0
2016-12-10T04:00:58.680Z,0
2016-12-10T04:02:07.590Z,0
2016-12-10T04:03:16.485Z,0
2016-12-10T04:04:25.072Z,0
2016-12-10T04:05:34.025Z,0
2016-12-10T04:06:42.626Z,0
2016-12-10T04:07:51.856Z,0
2016-12-10T04:09:01.068Z,0
2016-12-10T04:10:09.671Z,0
2016-12-10T04:11:18.563Z,0
2016-12-10T04:12:27.482Z,0
2016-12-10T04:13:36.372Z,0
2016-12-10T04:14:44.962Z,0
2016-12-10T04:15:53.882Z,0
2016-12-10T04:17:02.818Z,0
2016-12-10T04:18:11.415Z,0
2016-12-10T04:19:19.999Z,0
2016-12-10T04:20:28.597Z,0
2016-12-10T04:21:37.515Z,0
2016-12-10T04:22:46.454Z,0
2016-12-10T04:23:55.032Z,0
2016-12-10T04:25:03.937Z,0
2016-12-10T04:26:12.536Z,0
2016-12-10T04:27:21.130Z,0
2016-12-10T04:28:30.096Z,0
2016-12-10T04:29:39.004Z,0
2016-12-10T04:30:47.584Z,0
2016-12-10T04:31:56.497Z,0
2016-12-10T04:33:05.733Z,0
2016-12-10T04:34:14.653Z,0
2016-12-10T04:35:23.887Z,0
2016-12-10T04:36:32.787Z,0
2016-12-10T04:37:41.997Z,0
2016-12-10T04:38:50.605Z,0
2016-12-10T04:39:59.336Z,0
2016-12-10T04:41:07.919Z,0
2016-12-10T04:42:16.826Z,0
2016-12-10T04:43:25.405Z,0
2016-12-10T04:44:34.641Z,0
2016-12-10T04:45:43.286Z,0
2016-12-10T04:46:52.516Z,0
2016-12-10T04:48:01.412Z,0
2016-12-10T04:49:10.317Z,0
2016-12-10T04:50:19.212Z,0
2016-12-10T04:51:28.157Z,0
2016-12-10T04:52:37.399Z,0
2016-12-10T04:53:46.315Z,0
2016-12-10T04:54:54.893Z,0
2016-12-10T04:56:03.791Z,0
2016-12-10T04:57:12.831Z,0
2016-12-10T04:58:21.424Z,0
2016-12-10T04:59:30.327Z,0
2016-12-10T05:00:39.235Z,0
2016-12-10T05:01:47.823Z,0
2016-12-10T05:02:56.782Z,0
2016-12-10T05:04:05.693Z,0
2016-12-10T05:05:15.277Z,0
2016-12-10T05:06:24.179Z,0
2016-12-10T05:07:33.093Z,0
2016-12-10T05:08:42.445Z,0
2016-12-10T05:09:51.033Z,0
2016-12-10T05:10:59.930Z,0
2016-12-10T05:12:08.516Z,0
2016-12-10T05:13:17.740Z,0
2016-12-10T05:14:26.695Z,0
2016-12-10T05:15:35.610Z,0
2016-12-10T05:16:44.195Z,0
2016-12-10T05:17:53.103Z,0
2016-12-10T05:19:02.019Z,0
2016-12-10T05:20:11.307Z,0
2016-12-10T05:21:19.889Z,0
2016-12-10T05:22:28.475Z,0
2016-12-10T05:23:37.713Z,0
2016-12-10T05:24:46.308Z,0
2016-12-10T05:25:55.268Z,0
2016-12-10T05:27:03.883Z,0
2016-12-10T05:28:12.512Z,0
2016-12-10T05:29:21.410Z,0
2016-12-10T05:30:30.313Z,0
2016-12-10T05:31:39.016Z,0
2016-12-10T05:32:47.603Z,0
2016-12-10T05:33:56.816Z,0
2016-12-10T05:35:05.412Z,0
2016-12-10T05:36:14.320Z,0
2016-12-10T05:37:23.067Z,0
2016-12-10T05:38:31.677Z,0
2016-12-10T05:39:40.583Z,0
2016-12-10T05:40:49.171Z,0
2016-12-10T05:41:58.075Z,0
2016-12-10T05:43:06.802Z,0
2016-12-10T05:44:15.383Z,0
2016-12-10T05:45:23.963Z,0
2016-12-10T05:46:32.548Z,0
2016-12-10T05:47:41.147Z,0
2016-12-10T05:48:49.877Z,0
2016-12-10T05:49:58.467Z,0
2016-12-10T05:51:07.062Z,0
2016-12-10T05:52:15.662Z,0
2016-12-10T05:53:24.242Z,0
2016-12-10T05:54:33.488Z,0
2016-12-10T05:55:42.730Z,0
2016-12-10T05:56:51.317Z,0
2016-12-10T05:58:00.234Z,0
2016-12-10T05:59:09.148Z,0
2016-12-10T06:00:18.113Z,0
2016-12-10T06:01:26.709Z,0
2016-12-10T06:02:35.302Z,0
2016-12-10T06:03:44.531Z,0
2016-12-10T06:04:53.427Z,0
2016-12-10T06:06:02.112Z,0
2016-12-10T06:07:10.698Z,0
2016-12-10T06:08:19.603Z,0
2016-12-10T06:09:28.828Z,0
2016-12-10T06:10:37.715Z,0
2016-12-10T06:11:46.349Z,0
2016-12-10T06:12:55.260Z,0
2016-12-10T06:14:04.499Z,0
2016-12-10T06:15:13.069Z,0
2016-12-10T06:16:21.657Z,0
2016-12-10T06:17:30.616Z,0
2016-12-10T06:18:39.194Z,0
2016-12-10T06:19:47.789Z,0
2016-12-10T06:20:56.376Z,0
2016-12-10T06:22:04.983Z,0
2016-12-10T06:23:13.633Z,0
2016-12-10T06:24:22.862Z,0
2016-12-10T06:25:31.776Z,0
2016-12-10T06:26:40.699Z,0
2016-12-10T06:27:49.602Z,0
2016-12-10T06:28:58.875Z,0
2016-12-10T06:30:07.474Z,0
2016-12-10T06:31:16.702Z,0
2016-12-10T06:32:25.935Z,0
2016-12-10T06:33:34.857Z,0
2016-12-10T06:34:43.825Z,0
2016-12-10T06:35:52.412Z,0
2016-12-10T06:37:01.009Z,0
2016-12-10T06:38:09.605Z,0
2016-12-10T06:39:18.824Z,0
2016-12-10T06:40:27.859Z,0
2016-12-10T06:41:36.432Z,0
2016-12-10T06:42:45.015Z,0
2016-12-10T06:43:53.609Z,0
2016-12-10T06:45:02.199Z,0
2016-12-10T06:46:11.519Z,0
2016-12-10T06:47:20.745Z,0
2016-12-10T06:48:29.645Z,0
2016-12-10T06:49:38.909Z,0
2016-12-10T06:50:47.504Z,0
2016-12-10T06:51:56.457Z,0
2016-12-10T06:53:05.364Z,0
2016-12-10T06:54:14.276Z,0
2016-12-10T06:55:22.860Z,0
2016-12-10T06:56:31.769Z,0
2016-12-10T06:57:40.412Z,0
2016-12-10T06:58:49.317Z,0
2016-12-10T06:59:58.224Z,0
2016-12-10T07:01:06.818Z,0
2016-12-10T07:02:15.712Z,0
2016-12-10T07:03:24.709Z,4
2016-12-10T07:04:33.281Z,4
2016-12-10T07:05:41.874Z,4
2016-12-10T07:06:50.800Z,0
2016-12-10T07:07:59.387Z,4
2016-12-10T07:09:08.326Z,4
2016-12-10T07:10:17.232Z,4
2016-12-10T07:11:26.159Z,4
2016-12-10T07:12:34.798Z,4
2016-12-10T07:13:43.423Z,4
2016-12-10T07:14:52.368Z,8
2016-12-10T07:16:00.945Z,4
2016-12-10T07:17:09.852Z,8
2016-12-10T07:18:18.774Z,8
2016-12-10T07:19:28.002Z,12
2016-12-10T07:20:36.957Z,12
2016-12-10T07:21:45.553Z,12
2016-12-10T07:22:54.466Z,16
2016-12-10T07:24:03.380Z,16
2016-12-10T07:25:12.604Z,20
2016-12-10T07:26:21.240Z,24
2016-12-10T07:27:29.835Z,24
2016-12-10T07:28:38.786Z,24
2016-12-10T07:29:47.694Z,24
2016-12-10T07:30:56.602Z,24
2016-12-10T07:32:05.852Z,28
2016-12-10T07:33:14.764Z,28
2016-12-10T07:34:23.350Z,32
2016-12-10T07:35:31.937Z,36
2016-12-10T07:36:40.538Z,36
2016-12-10T07:37:49.525Z,40
2016-12-10T07:38:58.121Z,44
2016-12-10T07:40:07.024Z,44
2016-12-10T07:41:15.608Z,48
2016-12-10T07:42:24.193Z,60
2016-12-10T07:43:32.832Z,68
2016-12-10T07:44:41.429Z,76
2016-12-10T07:45:50.029Z,80
2016-12-10T07:46:59.246Z,76
2016-12-10T07:48:07.812Z,88
2016-12-10T07:49:16.824Z,96
2016-12-10T07:50:25.415Z,92
2016-12-10T07:51:34.323Z,108
2016-12-10T07:52:42.895Z,112
2016-12-10T07:53:52.117Z,140
2016-12-10T07:55:01.127Z,152
2016-12-10T07:56:10.030Z,136
2016-12-10T07:57:18.611Z,136
2016-12-10T07:58:27.832Z,160
2016-12-10T07:59:36.431Z,176
2016-12-10T08:00:45.446Z,216
2016-12-10T08:01:54.346Z,248
2016-12-10T08:03:03.267Z,304
2016-12-10T08:04:12.503Z,344
2016-12-10T08:05:21.410Z,332
2016-12-10T08:06:30.694Z,392
2016-12-10T08:07:39.287Z,488
2016-12-10T08:08:47.884Z,488
2016-12-10T08:09:56.471Z,580
2016-12-10T08:11:05.068Z,456
2016-12-10T08:12:14.426Z,500
2016-12-10T08:13:23.014Z,568
2016-12-10T08:14:31.609Z,528
2016-12-10T08:15:40.522Z,500
2016-12-10T08:16:49.770Z,724
2016-12-10T08:17:58.801Z,504
2016-12-10T08:19:07.735Z,480
2016-12-10T08:20:16.318Z,600
2016-12-10T08:21:24.915Z,488
2016-12-10T08:22:34.145Z,544
2016-12-10T08:23:42.783Z,596
2016-12-10T08:24:51.370Z,740
2016-12-10T08:25:59.952Z,848
2016-12-10T08:27:08.898Z,796
2016-12-10T08:28:17.487Z,728
2016-12-10T08:29:26.479Z,696
2016-12-10T08:30:35.386Z,672
2016-12-10T08:31:43.980Z,748
2016-12-10T08:32:53.217Z,812
2016-12-10T08:34:02.444Z,892
2016-12-10T08:35:11.075Z,780
2016-12-10T08:36:19.704Z,864
2016-12-10T08:37:28.596Z,832
2016-12-10T08:38:37.492Z,636
2016-12-10T08:39:46.395Z,884
2016-12-10T08:40:55.661Z,936
2016-12-10T08:42:04.288Z,696
2016-12-10T08:43:12.882Z,736
2016-12-10T08:44:21.787Z,712
2016-12-10T08:45:30.372Z,692
2016-12-10T08:46:39.683Z,748
2016-12-10T08:47:48.272Z,904
2016-12-10T08:48:56.871Z,856
2016-12-10T08:50:05.462Z,800
2016-12-10T08:51:14.047Z,748
2016-12-10T08:52:22.725Z,796
2016-12-10T08:53:31.311Z,708
2016-12-10T08:54:40.555Z,832
2016-12-10T08:55:49.458Z,936
2016-12-10T08:56:58.035Z,1052
2016-12-10T08:58:06.995Z,1096
2016-12-10T08:59:15.594Z,1068
2016-12-10T09:00:24.492Z,1108
2016-12-10T09:01:33.100Z,1288
2016-12-10T09:02:41.685Z,1100
2016-12-10T09:03:50.656Z,1140
2016-12-10T09:04:59.252Z,1184
2016-12-10T09:06:08.495Z,1248
2016-12-10T09:07:17.399Z,1116
2016-12-10T09:08:26.324Z,1096
2016-12-10T09:09:34.955Z,1136
2016-12-10T09:10:44.512Z,1168
2016-12-10T09:11:53.111Z,1256
2016-12-10T09:13:02.032Z,1324
2016-12-10T09:14:10.934Z,1448
2016-12-10T09:15:19.942Z,1608
2016-12-10T09:16:28.540Z,1296
2016-12-10T09:17:37.447Z,1256
2016-12-10T09:18:46.361Z,1308
2016-12-10T09:19:54.958Z,1316
2016-12-10T09:21:03.926Z,1520
2016-12-10T09:22:12.516Z,1428
2016-12-10T09:23:21.428Z,1560
2016-12-10T09:24:30.021Z,1364
2016-12-10T09:25:38.614Z,1552
2016-12-10T09:26:47.248Z,1556
2016-12-10T09:27:56.162Z,1504
2016-12-10T09:29:05.382Z,1756
2016-12-10T09:30:13.970Z,1912
2016-12-10T09:31:22.887Z,2076
2016-12-10T09:32:31.895Z,2204
2016-12-10T09:33:40.480Z,2108
2016-12-10T09:34:49.727Z,2400
2016-12-10T09:35:58.314Z,2300
2016-12-10T09:37:07.218Z,2728
2016-12-10T09:38:16.567Z,2720
2016-12-10T09:39:25.479Z,2256
2016-12-10T09:40:34.394Z,2544
2016-12-10T09:41:42.997Z,2960
2016-12-10T09:42:52.228Z,2788
2016-12-10T09:44:01.171Z,3084
2016-12-10T09:45:10.088Z,2704
2016-12-10T09:46:18.668Z,2780
2016-12-10T09:47:27.902Z,2800
2016-12-10T09:48:36.486Z,2728
2016-12-10T09:49:45.800Z,3052
2016-12-10T09:50:54.380Z,2892
2016-12-10T09:52:02.970Z,2816
2016-12-10T09:53:11.559Z,2336
2016-12-10T09:54:20.154Z,2672
2016-12-10T09:55:28.787Z,2696
2016-12-10T09:56:37.377Z,2376
2016-12-10T09:57:45.966Z,2632
2016-12-10T09:58:54.544Z,3532
2016-12-10T10:00:03.140Z,3112
2016-12-10T10:01:12.149Z,3240
2016-12-10T10:02:21.400Z,3536
2016-12-10T10:03:29.982Z,3308
2016-12-10T10:04:38.562Z,3608
2016-12-10T10:05:47.171Z,3480
2016-12-10T10:06:56.442Z,3268
2016-12-10T10:08:05.674Z,3256
2016-12-10T10:09:14.918Z,2900
2016-12-10T10:10:23.846Z,2976
2016-12-10T10:11:32.753Z,3084
2016-12-10T10:12:41.711Z,2820
2016-12-10T10:13:50.623Z,2756
2016-12-10T10:14:59.859Z,2496
2016-12-10T10:16:09.092Z,2496
2016-12-10T10:17:17.677Z,2028
2016-12-10T10:18:26.604Z,2256
2016-12-10T10:19:35.512Z,2064
2016-12-10T10:20:44.113Z,1932
2016-12-10T10:21:52.685Z,2160
2016-12-10T10:23:01.912Z,2128
2016-12-10T10:24:11.288Z,2012
2016-12-10T10:25:20.195Z,2060
2016-12-10T10:26:29.430Z,2096
2016-12-10T10:27:38.661Z,2160
2016-12-10T10:28:47.244Z,2308
2016-12-10T10:29:55.932Z,2476
2016-12-10T10:31:04.513Z,2644
2016-12-10T10:32:13.411Z,3012
2016-12-10T10:33:22.625Z,2784
2016-12-10T10:34:31.857Z,2928
2016-12-10T10:35:40.791Z,3196
2016-12-10T10:36:49.398Z,3184
2016-12-10T10:37:58.626Z,2620
2016-12-10T10:39:07.215Z,2356
2016-12-10T10:40:15.797Z,2632
2016-12-10T10:41:25.072Z,2816
2016-12-10T10:42:34.306Z,2796
2016-12-10T10:43:43.208Z,2876
2016-12-10T10:44:52.125Z,2860
2016-12-10T10:46:00.706Z,2816
2016-12-10T10:47:09.644Z,2652
2016-12-10T10:48:18.554Z,2796
2016-12-10T10:49:27.477Z,3096
2016-12-10T10:50:36.073Z,3328
2016-12-10T10:51:44.985Z,3552
2016-12-10T10:52:54.291Z,3268
2016-12-10T10:54:02.883Z,3272
2016-12-10T10:55:11.797Z,3600
2016-12-10T10:56:20.693Z,3928
2016-12-10T10:57:29.916Z,4076
2016-12-10T10:58:38.571Z,3956
2016-12-10T10:59:47.475Z,3844
2016-12-10T11:00:56.390Z,3728
2016-12-10T11:02:05.296Z,3680
2016-12-10T11:03:13.874Z,3336
2016-12-10T11:04:22.519Z,3540
2016-12-10T11:05:31.432Z,3416
2016-12-10T11:06:40.334Z,3436
2016-12-10T11:07:49.231Z,3808
2016-12-10T11:08:58.151Z,3688
2016-12-10T11:10:07.170Z,3572
2016-12-10T11:11:15.774Z,3236
2016-12-10T11:12:24.680Z,3116
2016-12-10T11:13:33.600Z,2932
2016-12-10T11:14:42.196Z,3088
2016-12-10T11:15:50.826Z,2856
2016-12-10T11:16:59.717Z,2732
2016-12-10T11:18:08.634Z,2568
2016-12-10T11:19:17.223Z,2568
2016-12-10T11:20:26.144Z,2468
2016-12-10T11:21:35.084Z,2428
2016-12-10T11:22:43.976Z,2420
2016-12-10T11:23:52.881Z,2228
2016-12-10T11:25:01.792Z,2280
2016-12-10T11:26:10.417Z,2456
2016-12-10T11:27:19.462Z,2636
2016-12-10T11:28:28.369Z,2584
2016-12-10T11:29:37.270Z,2580
2016-12-10T11:30:46.502Z,2552
2016-12-10T11:31:55.089Z,2632
2016-12-10T11:33:04.046Z,2780
2016-12-10T11:34:12.969Z,2996
2016-12-10T11:35:22.191Z,3176
2016-12-10T11:36:30.776Z,3200
2016-12-10T11:37:40.002Z,3320
2016-12-10T11:38:49.014Z,3292
2016-12-10T11:39:57.603Z,3184
2016-12-10T11:41:06.183Z,3160
2016-12-10T11:42:14.780Z,3012
2016-12-10T11:43:23.364Z,3484
2016-12-10T11:44:32.422Z,3196
2016-12-10T11:45:41.340Z,3196
2016-12-10T11:46:49.933Z,3356
2016-12-10T11:47:58.846Z,3272
2016-12-10T11:49:07.751Z,3328
2016-12-10T11:50:16.383Z,3368
2016-12-10T11:51:24.972Z,3140
2016-12-10T11:52:34.202Z,3080
2016-12-10T11:53:42.798Z,2660
2016-12-10T11:54:51.723Z,3308
2016-12-10T11:56:01.069Z,3204
2016-12-10T11:57:09.668Z,2984
2016-12-10T11:58:18.596Z,2928
2016-12-10T11:59:27.181Z,2820
2016-12-10T12:00:36.069Z,2620
2016-12-10T12:01:45.353Z,2704
2016-12-10T12:02:54.271Z,2636
2016-12-10T12:04:03.183Z,2768
2016-12-10T12:05:12.097Z,2600
2016-12-10T12:06:21.335Z,2712
2016-12-10T12:07:30.295Z,2532
2016-12-10T12:08:39.536Z,2792
2016-12-10T12:09:48.120Z,2300
2016-12-10T12:10:56.713Z,2204
2016-12-10T12:12:05.300Z,2260
2016-12-10T12:13:14.242Z,2216
2016-12-10T12:14:22.857Z,2088
2016-12-10T12:15:31.760Z,2156
2016-12-10T12:16:40.980Z,2372
2016-12-10T12:17:49.888Z,2076
2016-12-10T12:18:58.848Z,2048
2016-12-10T12:20:07.752Z,1980
2016-12-10T12:21:16.347Z,2168
2016-12-10T12:22:24.948Z,2056
2016-12-10T12:23:33.535Z,2080
2016-12-10T12:24:42.166Z,2060
2016-12-10T12:25:50.759Z,2008
2016-12-10T12:26:59.651Z,1904
2016-12-10T12:28:08.245Z,1732
2016-12-10T12:29:17.152Z,1708
2016-12-10T12:30:26.175Z,1732
2016-12-10T12:31:35.078Z,1732
2016-12-10T12:32:44.320Z,1832
2016-12-10T12:33:53.559Z,1804
2016-12-10T12:35:02.467Z,1856
2016-12-10T12:36:11.443Z,1756
2016-12-10T12:37:20.037Z,1892
2016-12-10T12:38:29.270Z,1916
2016-12-10T12:39:37.867Z,1888
2016-12-10T12:40:46.448Z,2032
2016-12-10T12:41:55.091Z,1944
2016-12-10T12:43:03.677Z,1996
2016-12-10T12:44:12.269Z,1852
2016-12-10T12:45:20.856Z,1924
2016-12-10T12:46:29.446Z,1828
2016-12-10T12:47:38.077Z,1728
2016-12-10T12:48:47.310Z,1788
2016-12-10T12:49:56.225Z,2048
2016-12-10T12:51:04.825Z,1888
2016-12-10T12:52:13.763Z,1916
2016-12-10T12:53:23.036Z,1860
2016-12-10T12:54:31.942Z,1924
2016-12-10T12:55:40.529Z,1980
2016-12-10T12:56:49.748Z,1908
2016-12-10T12:57:58.638Z,1960
2016-12-10T12:59:07.688Z,1832
2016-12-10T13:00:16.281Z,1920
2016-12-10T13:01:24.866Z,1880
2016-12-10T13:02:33.781Z,1724
2016-12-10T13:03:42.372Z,1692
2016-12-10T13:04:51.374Z,1884
2016-12-10T13:06:00.271Z,1860
2016-12-10T13:07:09.185Z,1976
2016-12-10T13:08:17.766Z,1716
2016-12-10T13:09:26.393Z,1672
2016-12-10T13:10:35.372Z,1536
2016-12-10T13:11:44.276Z,1576
2016-12-10T13:12:53.175Z,1416
2016-12-10T13:14:02.411Z,1448
2016-12-10T13:15:11.001Z,1440
2016-12-10T13:16:20.351Z,1412
2016-12-10T13:17:29.245Z,1324
2016-12-10T13:18:37.833Z,1308
2016-12-10T13:19:46.427Z,1312
2016-12-10T13:20:55.015Z,1332
2016-12-10T13:22:04.271Z,1300
2016-12-10T13:23:12.864Z,1300
2016-12-10T13:24:21.477Z,1264
2016-12-10T13:25:30.078Z,1336
2016-12-10T13:26:39.321Z,1400
2016-12-10T13:27:48.281Z,1348
2016-12-10T13:28:56.864Z,1204
2016-12-10T13:30:05.442Z,1260
2016-12-10T13:31:14.364Z,1232
2016-12-10T13:32:23.260Z,1284
2016-12-10T13:33:32.223Z,1196
2016-12-10T13:34:41.450Z,1148
2016-12-10T13:35:50.048Z,1100
2016-12-10T13:36:59.279Z,1104
2016-12-10T13:38:07.868Z,1048
2016-12-10T13:39:16.568Z,1052
2016-12-10T13:40:25.162Z,1088
2016-12-10T13:41:34.071Z,1112
2016-12-10T13:42:42.651Z,1176
2016-12-10T13:43:51.253Z,1160
2016-12-10T13:44:59.890Z,1164
2016-12-10T13:46:08.799Z,1156
2016-12-10T13:47:17.385Z,1044
2016-12-10T13:48:25.969Z,1076
2016-12-10T13:49:34.549Z,1040
2016-12-10T13:50:43.192Z,1000
2016-12-10T13:51:52.107Z,1052
2016-12-10T13:53:01.008Z,996
2016-12-10T13:54:10.227Z,968
2016-12-10T13:55:19.142Z,912
2016-12-10T13:56:27.783Z,872
2016-12-10T13:57:36.387Z,880
2016-12-10T13:58:44.964Z,984
2016-12-10T13:59:53.552Z,996
2016-12-10T14:01:02.780Z,1068
2016-12-10T14:02:12.050Z,1056
2016-12-10T14:03:21.607Z,1036
2016-12-10T14:04:30.521Z,968
2016-12-10T14:05:39.428Z,912
2016-12-10T14:06:48.327Z,1004
2016-12-10T14:07:57.592Z,956
2016-12-10T14:09:06.172Z,988
2016-12-10T14:10:14.770Z,836
2016-12-10T14:11:23.361Z,840
2016-12-10T14:12:32.274Z,832
2016-12-10T14:13:41.539Z,820
2016-12-10T14:14:51.101Z,796
2016-12-10T14:15:59.690Z,728
2016-12-10T14:17:08.264Z,800
2016-12-10T14:18:17.498Z,716
2016-12-10T14:19:26.187Z,704
2016-12-10T14:20:35.091Z,656
2016-12-10T14:21:44.000Z,604
2016-12-10T14:22:52.901Z,592
2016-12-10T14:24:02.433Z,564
2016-12-10T14:25:11.443Z,528
2016-12-10T14:26:20.339Z,488
2016-12-10T14:27:28.930Z,448
2016-12-10T14:28:37.821Z,444
2016-12-10T14:29:46.779Z,404
2016-12-10T14:30:55.416Z,372
2016-12-10T14:32:03.995Z,340
2016-12-10T14:33:12.593Z,332
2016-12-10T14:34:22.459Z,320
2016-12-10T14:35:31.044Z,308
2016-12-10T14:36:39.732Z,280
2016-12-10T14:37:48.323Z,292
2016-12-10T14:38:56.916Z,252
2016-12-10T14:40:05.548Z,240
2016-12-10T14:41:14.142Z,236
2016-12-10T14:42:23.429Z,228
2016-12-10T14:43:32.017Z,224
2016-12-10T14:44:40.937Z,232
2016-12-10T14:45:49.866Z,176
2016-12-10T14:46:58.779Z,144
2016-12-10T14:48:07.420Z,132
2016-12-10T14:49:16.330Z,124
2016-12-10T14:50:24.907Z,108
2016-12-10T14:51:33.797Z,108
2016-12-10T14:52:42.701Z,96
2016-12-10T14:53:51.660Z,100
2016-12-10T14:55:00.560Z,100
2016-12-10T14:56:09.475Z,84
2016-12-10T14:57:18.704Z,76
2016-12-10T14:58:27.308Z,80
2016-12-10T14:59:36.560Z,68
2016-12-10T15:00:45.471Z,68
2016-12-10T15:01:54.726Z,76
2016-12-10T15:03:03.310Z,60
2016-12-10T15:04:11.900Z,60
2016-12-10T15:05:21.196Z,52
2016-12-10T15:06:30.109Z,48
2016-12-10T15:07:38.711Z,44
2016-12-10T15:08:47.622Z,44
2016-12-10T15:09:56.853Z,40
2016-12-10T15:11:05.900Z,32
2016-12-10T15:12:14.497Z,28
2016-12-10T15:13:23.743Z,28
2016-12-10T15:14:32.324Z,24
2016-12-10T15:15:41.227Z,20
2016-12-10T15:16:49.860Z,20
2016-12-10T15:17:58.456Z,20
2016-12-10T15:19:07.379Z,16
2016-12-10T15:20:15.991Z,16
2016-12-10T15:21:24.904Z,12
2016-12-10T15:22:33.580Z,12
2016-12-10T15:23:42.166Z,8
2016-12-10T15:24:51.403Z,8
2016-12-10T15:26:00.000Z,8
2016-12-10T15:27:08.591Z,8
2016-12-10T15:28:17.274Z,8
2016-12-10T15:29:26.191Z,4
2016-12-10T15:30:34.787Z,4
2016-12-10T15:31:43.379Z,4
2016-12-10T15:32:52.277Z,4
2016-12-10T15:34:01.960Z,0
2016-12-10T15:35:10.888Z,4
2016-12-10T15:36:19.483Z,4
2016-12-10T15:37:28.714Z,4
2016-12-10T15:38:37.296Z,0
2016-12-10T15:39:46.261Z,0
2016-12-10T15:40:55.153Z,0
2016-12-10T15:42:03.739Z,0
2016-12-10T15:43:12.335Z,0
2016-12-10T15:44:20.927Z,0
2016-12-10T15:45:29.558Z,0
2016-12-10T15:46:38.137Z,0
2016-12-10T15:47:47.353Z,0
2016-12-10T15:48:55.943Z,0
2016-12-10T15:50:04.836Z,0
2016-12-10T15:51:13.567Z,0
2016-12-10T15:52:22.147Z,0
2016-12-10T15:53:31.063Z,0
2016-12-10T15:54:40.308Z,0
2016-12-10T15:55:48.907Z,0
2016-12-10T15:56:57.862Z,0
2016-12-10T15:58:06.786Z,0
2016-12-10T15:59:15.685Z,0
2016-12-10T16:00:24.598Z,0
2016-12-10T16:01:33.495Z,0
2016-12-10T16:02:42.545Z,0
2016-12-10T16:03:51.132Z,0
2016-12-10T16:05:00.032Z,0
2016-12-10T16:06:08.948Z,0
2016-12-10T16:07:17.535Z,0
2016-12-10T16:08:26.802Z,0
2016-12-10T16:09:36.046Z,0
2016-12-10T16:10:45.283Z,0
2016-12-10T16:11:54.207Z,0
2016-12-10T16:13:03.110Z,0
2016-12-10T16:14:11.730Z,0